createdAt,value
2017-05-25T00:00:06.166Z,0
2017-05-25T00:01:06.524Z,0
2017-05-25T00:02:06.576Z,0
2017-05-25T00:03:06.326Z,0
2017-05-25T00:04:06.680Z,0
2017-05-25T00:05:06.733Z,0
2017-05-25T00:06:06.492Z,0
2017-05-25T00:07:06.841Z,0
2017-05-25T00:08:06.900Z,0
2017-05-25T00:09:06.948Z,0
2017-05-25T00:10:07.005Z,0
2017-05-25T00:11:07.062Z,0
2017-05-25T00:12:07.114Z,0
2017-05-25T00:13:07.170Z,0
2017-05-25T00:14:07.220Z,0
2017-05-25T00:15:07.272Z,0
2017-05-25T00:16:07.329Z,0
2017-05-25T00:17:07.382Z,0
2017-05-25T00:18:07.481Z,0
2017-05-25T00:19:07.486Z,0
2017-05-25T00:20:07.542Z,0
2017-05-25T00:21:07.595Z,0
2017-05-25T00:22:07.646Z,0
2017-05-25T00:23:07.703Z,0
2017-05-25T00:24:07.463Z,0
2017-05-25T00:25:07.811Z,0
2017-05-25T00:26:07.861Z,0
2017-05-25T00:27:07.618Z,0
2017-05-25T00:28:07.971Z,0
2017-05-25T00:29:08.023Z,0
2017-05-25T00:30:08.079Z,0
2017-05-25T00:31:08.130Z,0
2017-05-25T00:32:07.892Z,0
2017-05-25T00:33:08.239Z,0
2017-05-25T00:34:08.294Z,0
2017-05-25T00:35:08.346Z,0
2017-05-25T00:36:08.403Z,0
2017-05-25T00:37:08.457Z,0
2017-05-25T00:38:08.509Z,0
2017-05-25T00:39:08.566Z,0
2017-05-25T00:40:08.614Z,0
2017-05-25T00:41:08.673Z,0
2017-05-25T00:42:08.728Z,0
2017-05-25T00:43:08.775Z,0
2017-05-25T00:44:08.833Z,0
2017-05-25T00:45:08.886Z,0
2017-05-25T00:46:08.939Z,0
2017-05-25T00:47:08.995Z,0
2017-05-25T00:48:09.051Z,0
2017-05-25T00:49:09.101Z,0
2017-05-25T00:50:09.159Z,0
2017-05-25T00:51:09.210Z,0
2017-05-25T00:52:08.961Z,0
2017-05-25T00:53:09.015Z,0
2017-05-25T00:54:09.069Z,0
2017-05-25T00:55:09.121Z,0
2017-05-25T00:56:09.478Z,0
2017-05-25T00:57:09.235Z,0
2017-05-25T00:58:09.594Z,0
2017-05-25T00:59:09.337Z,0
2017-05-25T01:00:09.389Z,0
2017-05-25T01:01:09.145Z,0
2017-05-25T01:02:09.498Z,0
2017-05-25T01:03:09.858Z,0
2017-05-25T01:04:09.909Z,0
2017-05-25T01:05:09.998Z,0
2017-05-25T01:06:10.021Z,0
2017-05-25T01:07:09.771Z,0
2017-05-25T01:08:09.523Z,0
2017-05-25T01:09:10.182Z,0
2017-05-25T01:10:10.237Z,0
2017-05-25T01:11:10.290Z,0
2017-05-25T01:12:10.339Z,0
2017-05-25T01:13:10.395Z,0
2017-05-25T01:14:10.448Z,0
2017-05-25T01:15:10.206Z,0
2017-05-25T01:16:10.562Z,0
2017-05-25T01:17:10.608Z,0
2017-05-25T01:18:10.063Z,0
2017-05-25T01:19:10.716Z,0
2017-05-25T01:20:10.777Z,0
2017-05-25T01:21:10.823Z,0
2017-05-25T01:22:10.276Z,0
2017-05-25T01:23:10.933Z,0
2017-05-25T01:24:10.383Z,0
2017-05-25T01:25:11.040Z,0
2017-05-25T01:26:10.796Z,0
2017-05-25T01:27:11.154Z,0
2017-05-25T01:28:11.203Z,0
2017-05-25T01:29:11.261Z,0
2017-05-25T01:30:11.009Z,0
2017-05-25T01:31:11.068Z,0
2017-05-25T01:32:11.423Z,0
2017-05-25T01:33:11.176Z,0
2017-05-25T01:34:11.531Z,0
2017-05-25T01:35:11.582Z,0
2017-05-25T01:36:11.631Z,0
2017-05-25T01:37:11.384Z,0
2017-05-25T01:38:11.753Z,0
2017-05-25T01:39:11.806Z,0
2017-05-25T01:40:11.549Z,0
2017-05-25T01:41:11.908Z,0
2017-05-25T01:42:11.962Z,0
2017-05-25T01:43:12.024Z,0
2017-05-25T01:44:12.074Z,0
2017-05-25T01:45:12.118Z,0
2017-05-25T01:46:12.172Z,0
2017-05-25T01:47:12.230Z,0
2017-05-25T01:48:12.285Z,0
2017-05-25T01:49:12.035Z,0
2017-05-25T01:50:12.394Z,0
2017-05-25T01:51:12.439Z,0
2017-05-25T01:52:12.195Z,0
2017-05-25T01:53:12.561Z,0
2017-05-25T01:54:12.319Z,0
2017-05-25T01:55:12.661Z,0
2017-05-25T01:56:12.410Z,0
2017-05-25T01:57:12.468Z,0
2017-05-25T01:58:12.823Z,0
2017-05-25T01:59:12.885Z,0
2017-05-25T02:00:12.634Z,0
2017-05-25T02:01:12.684Z,0
2017-05-25T02:02:13.035Z,0
2017-05-25T02:03:13.097Z,0
2017-05-25T02:04:13.149Z,0
2017-05-25T02:05:13.200Z,0
2017-05-25T02:06:12.953Z,0
2017-05-25T02:07:13.315Z,0
2017-05-25T02:08:13.063Z,0
2017-05-25T02:09:13.417Z,0
2017-05-25T02:10:13.469Z,0
2017-05-25T02:11:13.522Z,0
2017-05-25T02:12:13.581Z,0
2017-05-25T02:13:13.629Z,0
2017-05-25T02:14:13.383Z,0
2017-05-25T02:15:13.741Z,0
2017-05-25T02:16:13.790Z,0
2017-05-25T02:17:13.848Z,0
2017-05-25T02:18:13.899Z,0
2017-05-25T02:19:13.950Z,0
2017-05-25T02:20:14.008Z,0
2017-05-25T02:21:14.065Z,0
2017-05-25T02:22:13.817Z,0
2017-05-25T02:23:14.175Z,0
2017-05-25T02:24:14.222Z,0
2017-05-25T02:25:14.278Z,0
2017-05-25T02:26:14.330Z,0
2017-05-25T02:27:14.387Z,0
2017-05-25T02:28:14.138Z,0
2017-05-25T02:29:14.495Z,0
2017-05-25T02:30:14.546Z,0
2017-05-25T02:31:14.601Z,0
2017-05-25T02:32:14.654Z,0
2017-05-25T02:33:14.709Z,0
2017-05-25T02:34:14.771Z,0
2017-05-25T02:35:14.819Z,0
2017-05-25T02:36:14.872Z,0
2017-05-25T02:37:14.922Z,0
2017-05-25T02:38:14.974Z,0
2017-05-25T02:39:15.027Z,0
2017-05-25T02:40:14.785Z,0
2017-05-25T02:41:15.146Z,0
2017-05-25T02:42:15.191Z,0
2017-05-25T02:43:15.253Z,0
2017-05-25T02:44:15.303Z,0
2017-05-25T02:45:15.358Z,0
2017-05-25T02:46:15.407Z,0
2017-05-25T02:47:15.463Z,0
2017-05-25T02:48:15.520Z,0
2017-05-25T02:49:15.568Z,0
2017-05-25T02:50:15.628Z,0
2017-05-25T02:51:15.677Z,0
2017-05-25T02:52:15.730Z,0
2017-05-25T02:53:15.784Z,0
2017-05-25T02:54:15.537Z,0
2017-05-25T02:55:15.895Z,0
2017-05-25T02:56:15.645Z,0
2017-05-25T02:57:16.001Z,0
2017-05-25T02:58:16.057Z,0
2017-05-25T02:59:16.104Z,0
2017-05-25T03:00:16.165Z,0
2017-05-25T03:01:16.215Z,0
2017-05-25T03:02:16.271Z,0
2017-05-25T03:03:16.318Z,0
2017-05-25T03:04:16.376Z,0
2017-05-25T03:05:16.433Z,0
2017-05-25T03:06:16.489Z,0
2017-05-25T03:07:16.536Z,4
2017-05-25T03:08:16.590Z,4
2017-05-25T03:09:16.645Z,4
2017-05-25T03:10:16.701Z,4
2017-05-25T03:11:16.449Z,0
2017-05-25T03:12:16.806Z,4
2017-05-25T03:13:16.863Z,8
2017-05-25T03:14:16.926Z,4
2017-05-25T03:15:16.969Z,4
2017-05-25T03:16:17.024Z,8
2017-05-25T03:17:16.771Z,8
2017-05-25T03:18:17.134Z,8
2017-05-25T03:19:17.183Z,8
2017-05-25T03:20:17.233Z,8
2017-05-25T03:21:17.292Z,12
2017-05-25T03:22:17.343Z,8
2017-05-25T03:23:17.399Z,12
2017-05-25T03:24:17.452Z,16
2017-05-25T03:25:17.505Z,12
2017-05-25T03:26:17.605Z,16
2017-05-25T03:27:17.310Z,20
2017-05-25T03:28:17.664Z,20
2017-05-25T03:29:17.721Z,24
2017-05-25T03:30:17.469Z,28
2017-05-25T03:31:17.827Z,28
2017-05-25T03:32:17.877Z,32
2017-05-25T03:33:17.933Z,32
2017-05-25T03:34:17.985Z,36
2017-05-25T03:35:18.037Z,40
2017-05-25T03:36:17.792Z,40
2017-05-25T03:37:18.153Z,44
2017-05-25T03:38:18.198Z,44
2017-05-25T03:39:18.252Z,52
2017-05-25T03:40:18.306Z,56
2017-05-25T03:41:18.059Z,60
2017-05-25T03:42:18.415Z,64
2017-05-25T03:43:18.469Z,64
2017-05-25T03:44:18.220Z,72
2017-05-25T03:45:18.576Z,72
2017-05-25T03:46:18.631Z,80
2017-05-25T03:47:18.683Z,88
2017-05-25T03:48:18.737Z,88
2017-05-25T03:49:18.486Z,80
2017-05-25T03:50:18.541Z,84
2017-05-25T03:51:18.595Z,84
2017-05-25T03:52:18.647Z,92
2017-05-25T03:53:18.706Z,104
2017-05-25T03:54:19.061Z,112
2017-05-25T03:55:18.815Z,128
2017-05-25T03:56:19.172Z,140
2017-05-25T03:57:19.216Z,132
2017-05-25T03:58:19.271Z,140
2017-05-25T03:59:19.328Z,148
2017-05-25T04:00:19.383Z,156
2017-05-25T04:01:19.431Z,156
2017-05-25T04:02:19.486Z,144
2017-05-25T04:03:19.544Z,144
2017-05-25T04:04:19.599Z,136
2017-05-25T04:05:19.653Z,140
2017-05-25T04:06:19.405Z,136
2017-05-25T04:07:19.756Z,132
2017-05-25T04:08:19.814Z,140
2017-05-25T04:09:19.865Z,136
2017-05-25T04:10:19.919Z,140
2017-05-25T04:11:20.038Z,144
2017-05-25T04:12:20.030Z,164
2017-05-25T04:13:20.081Z,176
2017-05-25T04:14:20.136Z,184
2017-05-25T04:15:20.186Z,200
2017-05-25T04:16:20.238Z,208
2017-05-25T04:17:20.295Z,208
2017-05-25T04:18:20.346Z,208
2017-05-25T04:19:20.406Z,208
2017-05-25T04:20:20.451Z,224
2017-05-25T04:21:20.506Z,240
2017-05-25T04:22:20.566Z,228
2017-05-25T04:23:20.614Z,244
2017-05-25T04:24:20.677Z,264
2017-05-25T04:25:20.723Z,312
2017-05-25T04:26:20.781Z,300
2017-05-25T04:27:20.828Z,312
2017-05-25T04:28:20.885Z,332
2017-05-25T04:29:20.640Z,392
2017-05-25T04:30:20.991Z,444
2017-05-25T04:31:21.044Z,416
2017-05-25T04:32:20.797Z,428
2017-05-25T04:33:21.157Z,408
2017-05-25T04:34:20.909Z,408
2017-05-25T04:35:21.262Z,336
2017-05-25T04:36:21.319Z,292
2017-05-25T04:37:21.370Z,308
2017-05-25T04:38:21.121Z,320
2017-05-25T04:39:21.177Z,312
2017-05-25T04:40:21.227Z,316
2017-05-25T04:41:21.289Z,380
2017-05-25T04:42:21.333Z,364
2017-05-25T04:43:21.389Z,364
2017-05-25T04:44:21.746Z,396
2017-05-25T04:45:21.798Z,412
2017-05-25T04:46:21.854Z,404
2017-05-25T04:47:21.904Z,412
2017-05-25T04:48:21.656Z,448
2017-05-25T04:49:22.015Z,480
2017-05-25T04:50:22.066Z,476
2017-05-25T04:51:21.823Z,504
2017-05-25T04:52:22.175Z,468
2017-05-25T04:53:21.928Z,456
2017-05-25T04:54:22.284Z,400
2017-05-25T04:55:22.337Z,420
2017-05-25T04:56:22.389Z,480
2017-05-25T04:57:22.443Z,548
2017-05-25T04:58:22.495Z,644
2017-05-25T04:59:22.544Z,608
2017-05-25T05:00:22.302Z,680
2017-05-25T05:01:22.356Z,628
2017-05-25T05:02:22.714Z,664
2017-05-25T05:03:22.462Z,708
2017-05-25T05:04:22.825Z,732
2017-05-25T05:05:22.870Z,684
2017-05-25T05:06:22.925Z,652
2017-05-25T05:07:22.676Z,660
2017-05-25T05:08:23.034Z,800
2017-05-25T05:09:22.788Z,860
2017-05-25T05:10:22.837Z,824
2017-05-25T05:11:23.191Z,880
2017-05-25T05:12:23.245Z,960
2017-05-25T05:13:23.302Z,956
2017-05-25T05:14:23.056Z,892
2017-05-25T05:15:23.413Z,908
2017-05-25T05:16:23.464Z,936
2017-05-25T05:17:23.516Z,996
2017-05-25T05:18:22.965Z,968
2017-05-25T05:19:23.626Z,944
2017-05-25T05:20:23.676Z,1104
2017-05-25T05:21:23.746Z,1156
2017-05-25T05:22:23.784Z,1168
2017-05-25T05:23:23.840Z,1176
2017-05-25T05:24:23.596Z,1236
2017-05-25T05:25:23.948Z,1240
2017-05-25T05:26:23.697Z,1288
2017-05-25T05:27:24.054Z,1284
2017-05-25T05:28:24.107Z,1260
2017-05-25T05:29:24.161Z,1252
2017-05-25T05:30:24.215Z,1156
2017-05-25T05:31:24.266Z,1020
2017-05-25T05:32:24.320Z,1044
2017-05-25T05:33:24.374Z,1112
2017-05-25T05:34:24.430Z,1144
2017-05-25T05:35:24.485Z,1200
2017-05-25T05:36:24.539Z,1372
2017-05-25T05:37:24.593Z,1376
2017-05-25T05:38:24.852Z,1152
2017-05-25T05:39:24.702Z,1268
2017-05-25T05:40:24.751Z,1404
2017-05-25T05:41:24.808Z,1464
2017-05-25T05:42:24.769Z,1484
2017-05-25T05:43:24.915Z,1516
2017-05-25T05:44:24.971Z,1532
2017-05-25T05:45:25.020Z,1632
2017-05-25T05:46:24.979Z,1752
2017-05-25T05:47:24.827Z,1796
2017-05-25T05:48:25.185Z,1832
2017-05-25T05:49:25.240Z,1856
2017-05-25T05:50:25.287Z,1912
2017-05-25T05:51:25.343Z,1952
2017-05-25T05:52:25.398Z,2092
2017-05-25T05:53:25.148Z,2192
2017-05-25T05:54:25.509Z,2188
2017-05-25T05:55:25.257Z,2220
2017-05-25T05:56:25.309Z,2256
2017-05-25T05:57:25.368Z,2052
2017-05-25T05:58:25.724Z,2000
2017-05-25T05:59:25.777Z,1916
2017-05-25T06:00:25.829Z,2004
2017-05-25T06:01:25.886Z,2080
2017-05-25T06:02:25.938Z,2192
2017-05-25T06:03:25.694Z,2332
2017-05-25T06:04:25.749Z,2352
2017-05-25T06:05:26.097Z,2280
2017-05-25T06:06:26.154Z,2312
2017-05-25T06:07:25.911Z,2344
2017-05-25T06:08:26.266Z,2420
2017-05-25T06:09:26.020Z,2440
2017-05-25T06:10:26.368Z,2408
2017-05-25T06:11:26.421Z,2452
2017-05-25T06:12:26.478Z,2484
2017-05-25T06:13:26.736Z,2644
2017-05-25T06:14:26.594Z,2504
2017-05-25T06:15:26.642Z,2520
2017-05-25T06:16:26.696Z,2388
2017-05-25T06:17:40.200Z,2396
2017-05-25T06:18:26.808Z,2380
2017-05-25T06:19:26.865Z,2324
2017-05-25T06:20:26.610Z,2360
2017-05-25T06:21:27.023Z,2460
2017-05-25T06:22:27.231Z,2560
2017-05-25T06:23:27.076Z,2668
2017-05-25T06:24:27.199Z,2600
2017-05-25T06:25:27.182Z,2716
2017-05-25T06:26:27.240Z,2828
2017-05-25T06:27:27.293Z,3092
2017-05-25T06:28:27.350Z,2944
2017-05-25T06:29:27.405Z,2932
2017-05-25T06:30:27.454Z,2932
2017-05-25T06:31:27.512Z,2900
2017-05-25T06:32:27.260Z,2932
2017-05-25T06:33:27.319Z,3176
2017-05-25T06:34:27.374Z,3236
2017-05-25T06:35:27.727Z,3392
2017-05-25T06:36:27.774Z,3408
2017-05-25T06:37:27.834Z,3516
2017-05-25T06:38:27.890Z,3608
2017-05-25T06:39:27.949Z,3568
2017-05-25T06:40:27.994Z,3468
2017-05-25T06:41:27.747Z,3216
2017-05-25T06:42:28.109Z,3200
2017-05-25T06:43:28.166Z,3388
2017-05-25T06:44:28.216Z,3460
2017-05-25T06:45:28.268Z,3368
2017-05-25T06:46:28.585Z,3348
2017-05-25T06:47:28.578Z,3532
2017-05-25T06:48:28.437Z,3664
2017-05-25T06:49:28.489Z,3764
2017-05-25T06:50:28.536Z,3824
2017-05-25T06:51:28.593Z,3756
2017-05-25T06:52:41.742Z,3644
2017-05-25T06:53:28.707Z,3520
2017-05-25T06:54:28.759Z,3516
2017-05-25T06:55:28.813Z,3452
2017-05-25T06:56:28.865Z,3580
2017-05-25T06:57:28.833Z,3584
2017-05-25T06:58:28.972Z,3620
2017-05-25T06:59:29.032Z,4188
2017-05-25T07:00:29.087Z,4160
2017-05-25T07:01:29.141Z,4312
2017-05-25T07:02:29.200Z,4160
2017-05-25T07:03:29.253Z,4216
2017-05-25T07:04:29.298Z,4368
2017-05-25T07:05:29.357Z,4488
2017-05-25T07:06:29.415Z,4604
2017-05-25T07:07:29.472Z,4588
2017-05-25T07:08:29.522Z,4620
2017-05-25T07:09:29.578Z,5052
2017-05-25T07:10:29.331Z,5080
2017-05-25T07:11:29.685Z,4932
2017-05-25T07:12:29.440Z,5000
2017-05-25T07:13:29.798Z,5332
2017-05-25T07:14:29.854Z,5564
2017-05-25T07:15:29.912Z,5504
2017-05-25T07:16:29.659Z,4824
2017-05-25T07:17:29.717Z,4872
2017-05-25T07:18:29.774Z,4640
2017-05-25T07:19:30.132Z,4440
2017-05-25T07:20:30.182Z,4056
2017-05-25T07:21:30.240Z,4528
2017-05-25T07:22:30.492Z,5100
2017-05-25T07:23:30.551Z,5796
2017-05-25T07:24:30.174Z,6916
2017-05-25T07:25:30.454Z,5268
2017-05-25T07:26:30.511Z,5092
2017-05-25T07:27:29.962Z,3396
2017-05-25T07:28:30.627Z,4440
2017-05-25T07:29:30.678Z,4876
2017-05-25T07:30:30.433Z,4828
2017-05-25T07:31:30.788Z,5004
2017-05-25T07:32:31.056Z,4608
2017-05-25T07:33:30.898Z,4516
2017-05-25T07:34:30.958Z,4420
2017-05-25T07:35:30.705Z,4280
2017-05-25T07:36:31.062Z,5268
2017-05-25T07:37:31.123Z,5928
2017-05-25T07:38:31.174Z,5644
2017-05-25T07:39:31.226Z,5744
2017-05-25T07:40:31.289Z,6168
2017-05-25T07:41:31.337Z,6264
2017-05-25T07:42:31.400Z,5248
2017-05-25T07:43:31.156Z,4836
2017-05-25T07:44:31.502Z,5036
2017-05-25T07:45:31.564Z,5028
2017-05-25T07:46:31.616Z,5496
2017-05-25T07:47:31.673Z,6368
2017-05-25T07:48:31.732Z,6204
2017-05-25T07:49:31.784Z,7236
2017-05-25T07:50:31.847Z,8220
2017-05-25T07:51:31.898Z,5584
2017-05-25T07:52:31.957Z,5996
2017-05-25T07:53:32.011Z,6584
2017-05-25T07:54:32.066Z,6408
2017-05-25T07:55:32.124Z,6472
2017-05-25T07:56:32.175Z,6568
2017-05-25T07:57:32.231Z,7036
2017-05-25T07:58:32.287Z,7252
2017-05-25T07:59:32.346Z,6924
2017-05-25T08:00:32.402Z,7360
2017-05-25T08:01:45.850Z,7068
2017-05-25T08:02:32.511Z,6640
2017-05-25T08:03:32.567Z,6432
2017-05-25T08:04:32.623Z,6172
2017-05-25T08:05:32.678Z,5612
2017-05-25T08:06:32.434Z,7220
2017-05-25T08:07:32.792Z,7452
2017-05-25T08:08:32.849Z,6692
2017-05-25T08:09:32.603Z,7008
2017-05-25T08:10:32.964Z,7348
2017-05-25T08:11:46.104Z,6676
2017-05-25T08:12:32.768Z,6160
2017-05-25T08:13:33.128Z,6340
2017-05-25T08:14:33.187Z,6680
2017-05-25T08:15:33.245Z,6420
2017-05-25T08:16:33.002Z,5960
2017-05-25T08:17:33.352Z,5864
2017-05-25T08:18:33.410Z,5788
2017-05-25T08:19:33.466Z,5672
2017-05-25T08:20:33.521Z,5188
2017-05-25T08:21:33.583Z,4732
2017-05-25T08:22:33.632Z,3952
2017-05-25T08:23:33.893Z,4080
2017-05-25T08:24:33.443Z,5008
2017-05-25T08:25:33.796Z,5956
2017-05-25T08:26:33.557Z,7584
2017-05-25T08:27:33.914Z,6040
2017-05-25T08:28:33.666Z,5664
2017-05-25T08:29:34.022Z,5080
2017-05-25T08:30:34.086Z,4424
2017-05-25T08:31:33.836Z,4476
2017-05-25T08:32:34.197Z,5628
2017-05-25T08:33:34.253Z,6004
2017-05-25T08:34:34.310Z,7096
2017-05-25T08:35:34.363Z,6128
2017-05-25T08:36:34.422Z,5440
2017-05-25T08:37:34.474Z,4332
2017-05-25T08:38:34.232Z,5504
2017-05-25T08:39:34.586Z,6148
2017-05-25T08:40:34.643Z,6792
2017-05-25T08:41:34.401Z,6172
2017-05-25T08:42:34.453Z,6200
2017-05-25T08:43:34.816Z,5512
2017-05-25T08:44:34.867Z,5664
2017-05-25T08:45:34.620Z,6696
2017-05-25T08:46:34.979Z,7708
2017-05-25T08:47:34.735Z,6680
2017-05-25T08:48:34.797Z,7608
2017-05-25T08:49:34.854Z,7368
2017-05-25T08:50:35.206Z,6624
2017-05-25T08:51:35.266Z,7080
2017-05-25T08:52:35.320Z,6660
2017-05-25T08:53:35.382Z,6508
2017-05-25T08:54:35.132Z,6736
2017-05-25T08:55:35.488Z,6608
2017-05-25T08:56:35.549Z,6216
2017-05-25T08:57:35.604Z,6044
2017-05-25T08:58:35.661Z,6632
2017-05-25T08:59:35.422Z,7324
2017-05-25T09:00:35.785Z,7292
2017-05-25T09:01:35.834Z,7824
2017-05-25T09:02:35.886Z,7768
2017-05-25T09:03:35.945Z,7772
2017-05-25T09:04:35.998Z,7488
2017-05-25T09:05:36.056Z,7404
2017-05-25T09:06:36.117Z,7492
2017-05-25T09:07:36.176Z,7012
2017-05-25T09:08:36.227Z,7016
2017-05-25T09:09:36.282Z,8280
2017-05-25T09:10:36.341Z,8268
2017-05-25T09:11:36.399Z,7500
2017-05-25T09:12:36.464Z,7540
2017-05-25T09:13:36.511Z,7704
2017-05-25T09:14:36.620Z,7908
2017-05-25T09:15:36.622Z,8208
2017-05-25T09:16:36.679Z,7696
2017-05-25T09:17:36.740Z,8380
2017-05-25T09:18:36.799Z,7212
2017-05-25T09:19:36.852Z,6304
2017-05-25T09:20:36.903Z,6432
2017-05-25T09:21:36.969Z,8584
2017-05-25T09:22:36.722Z,6868
2017-05-25T09:23:36.775Z,7660
2017-05-25T09:24:36.834Z,7116
2017-05-25T09:25:36.891Z,6560
2017-05-25T09:26:37.253Z,5784
2017-05-25T09:27:37.007Z,5816
2017-05-25T09:28:37.364Z,5920
2017-05-25T09:29:37.424Z,6172
2017-05-25T09:30:37.480Z,6808
2017-05-25T09:31:37.536Z,8284
2017-05-25T09:32:37.596Z,7380
2017-05-25T09:33:37.654Z,7048
2017-05-25T09:34:37.705Z,7480
2017-05-25T09:35:37.764Z,9080
2017-05-25T09:36:37.820Z,7600
2017-05-25T09:37:37.875Z,9520
2017-05-25T09:38:37.936Z,9028
2017-05-25T09:39:37.988Z,8436
2017-05-25T09:40:38.049Z,7708
2017-05-25T09:41:38.105Z,7788
2017-05-25T09:42:38.162Z,6736
2017-05-25T09:43:38.214Z,6412
2017-05-25T09:44:38.270Z,6540
2017-05-25T09:45:38.328Z,6292
2017-05-25T09:46:38.386Z,4864
2017-05-25T09:47:38.495Z,4172
2017-05-25T09:48:38.503Z,4628
2017-05-25T09:49:38.558Z,4388
2017-05-25T09:50:38.619Z,3916
2017-05-25T09:51:38.674Z,3368
2017-05-25T09:52:38.729Z,3032
2017-05-25T09:53:38.785Z,2988
2017-05-25T09:54:38.843Z,3180
2017-05-25T09:55:38.899Z,2880
2017-05-25T09:56:38.954Z,2480
2017-05-25T09:57:39.012Z,2392
2017-05-25T09:58:38.770Z,2528
2017-05-25T09:59:39.132Z,2408
2017-05-25T10:00:39.184Z,2248
2017-05-25T10:01:39.241Z,2124
2017-05-25T10:02:39.000Z,2320
2017-05-25T10:03:39.353Z,2384
2017-05-25T10:04:39.113Z,2516
2017-05-25T10:05:38.864Z,2724
2017-05-25T10:06:39.222Z,3012
2017-05-25T10:07:39.589Z,3472
2017-05-25T10:08:39.637Z,4088
2017-05-25T10:09:39.695Z,4188
2017-05-25T10:10:39.447Z,4256
2017-05-25T10:11:39.803Z,4316
2017-05-25T10:12:39.867Z,4496
2017-05-25T10:13:39.917Z,4360
2017-05-25T10:14:39.977Z,4568
2017-05-25T10:15:40.035Z,5124
2017-05-25T10:16:40.097Z,5728
2017-05-25T10:17:40.148Z,5992
2017-05-25T10:18:40.207Z,5360
2017-05-25T10:19:40.261Z,5008
2017-05-25T10:20:40.322Z,5072
2017-05-25T10:21:40.375Z,5120
2017-05-25T10:22:40.430Z,5384
2017-05-25T10:23:40.490Z,7660
2017-05-25T10:24:40.547Z,10460
2017-05-25T10:25:40.602Z,9060
2017-05-25T10:26:40.661Z,8160
2017-05-25T10:27:40.718Z,8276
2017-05-25T10:28:40.477Z,7628
2017-05-25T10:29:40.831Z,6960
2017-05-25T10:30:40.887Z,6316
2017-05-25T10:31:40.945Z,6840
2017-05-25T10:32:41.000Z,6960
2017-05-25T10:33:41.061Z,6656
2017-05-25T10:34:41.110Z,7008
2017-05-25T10:35:41.168Z,7232
2017-05-25T10:36:41.227Z,7564
2017-05-25T10:37:41.290Z,6888
2017-05-25T10:38:41.340Z,5988
2017-05-25T10:39:41.398Z,6020
2017-05-25T10:40:41.458Z,6400
2017-05-25T10:41:41.507Z,5960
2017-05-25T10:42:41.571Z,5628
2017-05-25T10:43:41.622Z,5528
2017-05-25T10:44:41.682Z,5972
2017-05-25T10:45:41.742Z,6536
2017-05-25T10:46:41.495Z,5688
2017-05-25T10:47:41.850Z,4588
2017-05-25T10:48:41.608Z,4396
2017-05-25T10:49:41.969Z,4128
2017-05-25T10:50:42.025Z,3704
2017-05-25T10:51:41.776Z,3748
2017-05-25T10:52:41.837Z,4076
2017-05-25T10:53:41.894Z,4700
2017-05-25T10:54:42.250Z,5420
2017-05-25T10:55:42.314Z,5328
2017-05-25T10:56:42.365Z,4628
2017-05-25T10:57:42.426Z,4572
2017-05-25T10:58:42.476Z,4960
2017-05-25T10:59:42.542Z,5264
2017-05-25T11:00:42.591Z,5844
2017-05-25T11:01:42.345Z,6240
2017-05-25T11:02:42.710Z,7124
2017-05-25T11:03:42.763Z,7072
2017-05-25T11:04:42.819Z,6924
2017-05-25T11:05:42.575Z,6936
2017-05-25T11:06:42.933Z,7236
2017-05-25T11:07:42.992Z,7592
2017-05-25T11:08:42.747Z,8116
2017-05-25T11:09:43.102Z,7652
2017-05-25T11:10:43.163Z,8028
2017-05-25T11:11:43.217Z,7604
2017-05-25T11:12:43.272Z,6440
2017-05-25T11:13:43.032Z,6124
2017-05-25T11:14:43.404Z,6092
2017-05-25T11:15:43.449Z,6304
2017-05-25T11:16:43.500Z,7652
2017-05-25T11:17:42.956Z,8072
2017-05-25T11:18:43.327Z,8440
2017-05-25T11:19:43.680Z,8872
2017-05-25T11:20:43.732Z,8232
2017-05-25T11:21:43.787Z,8564
2017-05-25T11:22:43.844Z,8400
2017-05-25T11:23:43.905Z,7216
2017-05-25T11:24:43.959Z,5552
2017-05-25T11:25:44.015Z,6460
2017-05-25T11:26:44.076Z,5388
2017-05-25T11:27:44.131Z,6040
2017-05-25T11:28:44.192Z,6000
2017-05-25T11:29:44.247Z,5160
2017-05-25T11:30:44.306Z,4700
2017-05-25T11:31:44.359Z,4264
2017-05-25T11:32:44.428Z,4520
2017-05-25T11:33:44.476Z,5700
2017-05-25T11:34:44.529Z,6960
2017-05-25T11:35:44.591Z,7236
2017-05-25T11:36:44.341Z,5884
2017-05-25T11:37:44.707Z,4924
2017-05-25T11:38:44.759Z,4924
2017-05-25T11:39:44.814Z,4940
2017-05-25T11:40:44.873Z,4556
2017-05-25T11:41:44.932Z,4496
2017-05-25T11:42:44.989Z,4352
2017-05-25T11:43:45.045Z,4568
2017-05-25T11:44:45.106Z,4904
2017-05-25T11:45:45.160Z,5476
2017-05-25T11:46:44.912Z,6748
2017-05-25T11:47:44.670Z,7468
2017-05-25T11:48:45.333Z,6240
2017-05-25T11:49:45.087Z,4436
2017-05-25T11:50:45.143Z,5176
2017-05-25T11:51:45.501Z,6704
2017-05-25T11:52:45.256Z,5892
2017-05-25T11:53:45.625Z,5732
2017-05-25T11:54:45.671Z,6360
2017-05-25T11:55:45.727Z,4848
2017-05-25T11:56:45.778Z,5656
2017-05-25T11:57:45.845Z,4460
2017-05-25T11:58:45.900Z,4156
2017-05-25T11:59:45.952Z,4832
2017-05-25T12:00:46.008Z,6824
2017-05-25T12:01:46.072Z,4988
2017-05-25T12:02:46.128Z,4460
2017-05-25T12:03:46.187Z,4428
2017-05-25T12:04:46.238Z,5772
2017-05-25T12:05:46.295Z,5080
2017-05-25T12:06:46.357Z,4848
2017-05-25T12:07:46.109Z,5004
2017-05-25T12:08:46.469Z,4516
2017-05-25T12:09:46.525Z,4068
2017-05-25T12:10:46.583Z,4588
2017-05-25T12:11:46.638Z,5544
2017-05-25T12:12:46.698Z,5960
2017-05-25T12:13:46.757Z,6968
2017-05-25T12:14:46.813Z,6884
2017-05-25T12:15:46.868Z,5780
2017-05-25T12:16:46.922Z,5280
2017-05-25T12:17:46.981Z,4764
2017-05-25T12:18:47.041Z,4596
2017-05-25T12:19:46.793Z,4452
2017-05-25T12:20:47.150Z,4608
2017-05-25T12:21:47.213Z,4488
2017-05-25T12:22:47.261Z,3916
2017-05-25T12:23:47.324Z,3928
2017-05-25T12:24:47.385Z,4292
2017-05-25T12:25:47.437Z,4208
2017-05-25T12:26:47.490Z,4088
2017-05-25T12:27:47.550Z,4012
2017-05-25T12:28:47.615Z,4172
2017-05-25T12:29:47.665Z,4372
2017-05-25T12:30:47.726Z,4436
2017-05-25T12:31:47.781Z,4348
2017-05-25T12:32:47.839Z,3804
2017-05-25T12:33:47.895Z,3372
2017-05-25T12:34:47.952Z,3444
2017-05-25T12:35:48.013Z,3488
2017-05-25T12:36:48.063Z,3816
2017-05-25T12:37:47.823Z,4624
2017-05-25T12:38:47.882Z,5356
2017-05-25T12:39:47.934Z,5780
2017-05-25T12:40:48.293Z,5588
2017-05-25T12:41:48.349Z,5752
2017-05-25T12:42:48.106Z,5760
2017-05-25T12:43:48.464Z,5608
2017-05-25T12:44:48.524Z,6136
2017-05-25T12:45:48.575Z,5984
2017-05-25T12:46:48.632Z,5664
2017-05-25T12:47:48.691Z,5216
2017-05-25T12:48:48.752Z,4564
2017-05-25T12:49:48.812Z,4152
2017-05-25T12:50:48.864Z,3820
2017-05-25T12:51:48.618Z,4184
2017-05-25T12:52:48.676Z,5008
2017-05-25T12:53:49.036Z,5316
2017-05-25T12:54:49.089Z,5248
2017-05-25T12:55:49.147Z,6116
2017-05-25T12:56:49.199Z,6460
2017-05-25T12:57:49.261Z,6616
2017-05-25T12:58:49.320Z,6944
2017-05-25T12:59:49.376Z,7284
2017-05-25T13:00:49.430Z,7688
2017-05-25T13:01:49.490Z,7584
2017-05-25T13:02:49.546Z,6188
2017-05-25T13:03:49.615Z,4628
2017-05-25T13:04:49.360Z,6080
2017-05-25T13:05:49.414Z,5228
2017-05-25T13:06:49.470Z,4436
2017-05-25T13:07:49.829Z,4876
2017-05-25T13:08:49.890Z,5052
2017-05-25T13:09:49.945Z,4404
2017-05-25T13:10:50.000Z,4200
2017-05-25T13:11:50.053Z,4596
2017-05-25T13:12:50.116Z,5404
2017-05-25T13:13:50.173Z,4784
2017-05-25T13:14:49.930Z,4580
2017-05-25T13:15:49.980Z,5168
2017-05-25T13:16:50.342Z,5800
2017-05-25T13:17:50.404Z,6304
2017-05-25T13:18:50.459Z,5552
2017-05-25T13:19:50.213Z,4628
2017-05-25T13:20:50.572Z,3932
2017-05-25T13:21:50.629Z,3768
2017-05-25T13:22:50.688Z,4032
2017-05-25T13:23:50.745Z,4524
2017-05-25T13:24:50.799Z,5144
2017-05-25T13:25:50.854Z,5352
2017-05-25T13:26:50.914Z,4116
2017-05-25T13:27:50.668Z,3840
2017-05-25T13:28:51.030Z,4136
2017-05-25T13:29:51.091Z,3996
2017-05-25T13:30:51.139Z,3876
2017-05-25T13:31:51.197Z,3728
2017-05-25T13:32:51.257Z,3696
2017-05-25T13:33:51.313Z,3864
2017-05-25T13:34:51.374Z,4900
2017-05-25T13:35:51.426Z,5564
2017-05-25T13:36:51.540Z,7012
2017-05-25T13:37:51.540Z,6296
2017-05-25T13:38:51.296Z,6356
2017-05-25T13:39:51.657Z,6560
2017-05-25T13:40:51.721Z,5696
2017-05-25T13:41:51.464Z,4824
2017-05-25T13:42:51.521Z,3888
2017-05-25T13:43:51.582Z,3428